createdAt,value
2022-12-19T00:00:19.767Z,52.20
2022-12-19T00:05:25.335Z,63.03
2022-12-19T00:10:31.479Z,39.27
2022-12-19T00:15:38.055Z,34.80
2022-12-19T00:20:43.425Z,57.20
2022-12-19T00:25:48.817Z,63.17
2022-12-19T00:30:55.175Z,58.40
2022-12-19T00:36:02.989Z,59.17
2022-12-19T00:41:11.644Z,53.42
2022-12-19T00:46:18.021Z,55.28
2022-12-19T00:51:25.649Z,48.42
2022-12-19T00:56:33.432Z,44.38
2022-12-19T01:01:47.323Z,51.67
2022-12-19T01:07:00.404Z,48.97
2022-12-19T01:12:32.140Z,39.88
2022-12-19T01:17:44.312Z,39.05
2022-12-19T01:22:50.488Z,44.00
2022-12-19T01:27:57.107Z,42.42
2022-12-19T01:33:03.233Z,39.25
2022-12-19T01:38:09.572Z,37.50
2022-12-19T01:43:17.269Z,35.22
2022-12-19T01:48:22.721Z,28.63
2022-12-19T01:53:29.280Z,24.23
2022-12-19T02:03:40.902Z,29.23
2022-12-19T02:08:49.689Z,23.23
2022-12-19T02:13:55.698Z,24.83
2022-12-19T02:19:33.310Z,22.10
2022-12-19T02:25:17.712Z,24.77
2022-12-19T02:30:32.720Z,21.30
2022-12-19T02:35:45.174Z,31.60
2022-12-19T02:40:59.815Z,18.15
2022-12-19T02:46:07.459Z,27.92
2022-12-19T02:51:14.628Z,26.63
2022-12-19T02:56:38.991Z,32.00
2022-12-19T03:01:48.584Z,27.95
2022-12-19T03:07:03.527Z,26.52
2022-12-19T03:12:17.854Z,31.45
2022-12-19T03:17:23.651Z,28.67
2022-12-19T03:22:29.699Z,27.47
2022-12-19T03:27:37.091Z,30.17
2022-12-19T03:32:45.472Z,27.83
2022-12-19T03:37:52.634Z,23.88
2022-12-19T03:43:11.670Z,28.10
2022-12-19T03:48:30.466Z,30.77
2022-12-19T03:53:55.250Z,26.33
2022-12-19T03:59:03.588Z,33.75
2022-12-19T04:04:10.781Z,28.85
2022-12-19T04:09:22.195Z,32.00
2022-12-19T04:14:32.489Z,35.65
2022-12-19T04:19:42.474Z,34.85
2022-12-19T04:24:49.387Z,29.60
2022-12-19T04:29:58.040Z,26.00
2022-12-19T04:35:03.847Z,34.40
2022-12-19T04:40:10.144Z,26.57
2022-12-19T04:45:16.145Z,25.25
2022-12-19T04:55:27.827Z,34.30
2022-12-19T05:00:37.424Z,32.63
2022-12-19T05:05:46.624Z,33.63
2022-12-19T05:10:55.605Z,31.23
2022-12-19T05:16:05.108Z,35.97
2022-12-19T05:21:10.595Z,26.23
2022-12-19T05:26:15.855Z,12.90
2022-12-19T05:31:22.825Z,37.33
2022-12-19T05:36:32.487Z,37.78
2022-12-19T05:41:38.474Z,19.10
2022-12-19T05:46:44.304Z,36.70
2022-12-19T05:51:49.954Z,24.65
2022-12-19T05:56:55.835Z,36.43
2022-12-19T06:02:01.256Z,32.07
2022-12-19T06:07:07.365Z,26.30
2022-12-19T06:12:12.880Z,23.87
2022-12-19T06:17:18.598Z,28.40
2022-12-19T06:22:25.502Z,23.90
2022-12-19T06:27:31.033Z,22.08
2022-12-19T06:32:38.037Z,37.43
2022-12-19T06:37:44.247Z,27.25
2022-12-19T06:42:50.706Z,37.10
2022-12-19T06:47:56.262Z,26.23
2022-12-19T06:53:02.034Z,22.83
2022-12-19T06:58:07.678Z,32.43
2022-12-19T07:03:15.067Z,21.13
2022-12-19T07:08:20.925Z,23.65
2022-12-19T07:13:26.941Z,30.92
2022-12-19T07:18:38.219Z,30.73
2022-12-19T07:23:44.167Z,28.80
2022-12-19T07:28:50.087Z,30.33
2022-12-19T07:33:55.703Z,32.50
2022-12-19T07:39:01.234Z,29.57
2022-12-19T07:44:07.675Z,32.23
2022-12-19T07:49:14.245Z,31.70
2022-12-19T07:54:22.310Z,30.55
2022-12-19T07:59:32.223Z,29.77
2022-12-19T08:04:39.726Z,33.72
2022-12-19T08:09:45.676Z,36.63
2022-12-19T08:14:55.573Z,35.95
2022-12-19T08:20:03.331Z,34.40
2022-12-19T08:25:10.255Z,36.92
2022-12-19T08:30:17.207Z,36.97
2022-12-19T08:35:22.882Z,33.65
2022-12-19T08:40:29.143Z,31.07
2022-12-19T08:45:34.817Z,37.00
2022-12-19T08:50:40.550Z,34.20
2022-12-19T08:55:46.918Z,36.50
2022-12-19T09:06:12.137Z,32.65
2022-12-19T09:11:23.537Z,35.22
2022-12-19T09:21:37.661Z,36.65
2022-12-19T09:26:43.635Z,32.25
2022-12-19T09:31:51.226Z,37.80
2022-12-19T09:37:02.607Z,36.17
2022-12-19T09:42:11.345Z,43.87
2022-12-19T09:47:19.845Z,35.40
2022-12-19T09:52:33.105Z,35.97
2022-12-19T09:57:58.796Z,37.25
2022-12-19T10:03:18.521Z,38.25
2022-12-19T10:09:10.034Z,40.65
2022-12-19T10:14:23.732Z,41.58
2022-12-19T10:19:47.849Z,41.95
2022-12-19T10:25:09.798Z,43.42
2022-12-19T10:30:19.131Z,46.25
2022-12-19T10:35:26.216Z,48.65
2022-12-19T10:40:43.072Z,49.20
2022-12-19T10:50:56.369Z,51.03
2022-12-19T10:56:14.210Z,55.73
2022-12-19T11:01:26.121Z,50.20
2022-12-19T11:06:59.253Z,57.25
2022-12-19T11:15:23.917Z,60.25
2022-12-19T11:24:22.776Z,61.50
2022-12-19T11:29:36.581Z,63.33
2022-12-19T11:30:45.318Z,63.03
2022-12-19T11:34:09.225Z,62.97
2022-12-19T11:39:25.252Z,67.32
2022-12-19T11:44:51.552Z,63.22
2022-12-19T11:50:03.706Z,62.38
2022-12-19T11:55:13.421Z,69.20
2022-12-19T12:00:20.130Z,83.60
2022-12-19T12:05:45.706Z,69.47
2022-12-19T12:16:43.116Z,75.82
2022-12-19T12:30:58.929Z,83.18
2022-12-19T12:31:04.758Z,84.70
2022-12-19T12:32:05.783Z,84.60
2022-12-19T12:35:14.258Z,80.20
2022-12-19T12:38:59.915Z,90.45
2022-12-19T12:44:13.008Z,82.85
2022-12-19T12:49:46.213Z,71.68
2022-12-19T12:54:55.767Z,80.15
2022-12-19T13:00:37.011Z,86.20
2022-12-19T13:05:44.313Z,88.38
2022-12-19T13:10:58.699Z,76.38
2022-12-19T13:16:24.194Z,82.65
2022-12-19T13:21:49.789Z,77.20
2022-12-19T13:26:56.363Z,77.28
2022-12-19T13:32:16.973Z,73.15
2022-12-19T13:39:47.738Z,29.02
2022-12-19T13:43:22.508Z,62.70
2022-12-19T13:48:34.115Z,57.03
2022-12-19T13:53:42.122Z,57.15
2022-12-19T13:58:56.907Z,49.80
2022-12-19T14:04:08.552Z,40.97
2022-12-19T14:11:30.369Z,51.88
2022-12-19T14:15:16.549Z,51.28
2022-12-19T14:22:04.657Z,52.55
2022-12-19T14:28:20.039Z,30.45
2022-12-19T14:31:25.058Z,25.30
2022-12-19T14:36:38.949Z,48.13
2022-12-19T14:42:04.081Z,44.08
2022-12-19T14:54:03.653Z,44.05
2022-12-19T14:54:22.080Z,44.80
2022-12-19T14:58:52.744Z,45.88
2022-12-19T15:04:52.156Z,48.45
2022-12-19T15:11:05.011Z,50.70
2022-12-19T15:15:22.945Z,51.40
2022-12-19T15:20:29.337Z,48.63
2022-12-19T15:26:03.450Z,48.45
2022-12-19T15:31:07.457Z,45.23
2022-12-19T15:36:16.695Z,43.08
2022-12-19T15:41:26.868Z,47.63
2022-12-19T15:46:34.987Z,43.65
2022-12-19T15:51:40.803Z,43.92
2022-12-19T15:56:48.877Z,43.08
2022-12-19T16:01:55.190Z,43.72
2022-12-19T16:07:01.331Z,40.90
2022-12-19T16:12:07.831Z,38.30
2022-12-19T16:22:23.871Z,39.33
2022-12-19T16:27:31.052Z,39.05
2022-12-19T16:32:36.933Z,39.08
2022-12-19T16:37:42.303Z,39.58
2022-12-19T16:42:49.015Z,38.58
2022-12-19T16:47:54.763Z,36.85
2022-12-19T16:53:00.498Z,37.45
2022-12-19T16:58:06.048Z,37.70
2022-12-19T17:03:16.929Z,34.83
2022-12-19T17:08:22.803Z,34.38
2022-12-19T17:13:28.707Z,32.30
2022-12-19T17:18:35.875Z,22.95
2022-12-19T17:23:41.348Z,30.45
2022-12-19T17:28:49.607Z,30.80
2022-12-19T17:33:57.460Z,32.10
2022-12-19T17:39:02.834Z,27.65
2022-12-19T17:44:08.340Z,24.43
2022-12-19T17:49:22.835Z,31.57
2022-12-19T17:54:28.866Z,27.77
2022-12-19T17:59:34.531Z,32.63
2022-12-19T18:04:39.910Z,31.20
2022-12-19T18:09:45.510Z,30.55
2022-12-19T18:14:51.003Z,32.90
2022-12-19T18:19:56.254Z,30.00
2022-12-19T18:25:02.658Z,28.15
2022-12-19T18:30:09.079Z,27.88
2022-12-19T18:35:21.813Z,29.50
2022-12-19T18:40:31.610Z,32.65
2022-12-19T18:45:38.995Z,30.52
2022-12-19T18:50:44.560Z,32.40
2022-12-19T18:55:50.440Z,34.50
2022-12-19T19:00:59.661Z,31.45
2022-12-19T19:06:06.896Z,30.38
2022-12-19T19:16:24.568Z,31.08
2022-12-19T19:21:32.113Z,28.98
2022-12-19T19:26:38.278Z,29.65
2022-12-19T19:31:46.599Z,29.50
2022-12-19T19:36:56.275Z,33.55
2022-12-19T19:42:02.592Z,33.83
2022-12-19T19:47:08.384Z,34.78
2022-12-19T19:52:14.058Z,38.75
2022-12-19T19:57:19.890Z,38.60
2022-12-19T20:02:25.540Z,38.88
2022-12-19T20:07:32.011Z,43.77
2022-12-19T20:12:38.333Z,39.40
2022-12-19T20:17:44.034Z,44.53
2022-12-19T20:22:49.668Z,49.03
2022-12-19T20:27:55.398Z,57.17
2022-12-19T20:33:00.796Z,49.47
2022-12-19T20:38:06.309Z,52.78
2022-12-19T20:43:11.711Z,58.38
2022-12-19T20:48:17.319Z,53.05
2022-12-19T20:53:22.714Z,54.55
2022-12-19T20:58:28.779Z,54.70
2022-12-19T21:03:34.710Z,60.42
2022-12-19T21:08:41.202Z,59.00
2022-12-19T21:13:47.507Z,57.10
2022-12-19T21:18:53.403Z,55.30
2022-12-19T21:23:58.922Z,53.97
2022-12-19T21:29:04.406Z,54.47
2022-12-19T21:34:10.205Z,53.78
2022-12-19T21:39:15.954Z,55.50
2022-12-19T21:44:21.673Z,52.90
2022-12-19T21:49:27.384Z,53.37
2022-12-19T21:54:32.804Z,54.53
2022-12-19T21:59:38.418Z,58.47
2022-12-19T22:04:43.816Z,54.90
2022-12-19T22:09:49.604Z,55.35
2022-12-19T22:14:55.437Z,57.57
2022-12-19T22:20:01.168Z,54.00
2022-12-19T22:25:06.686Z,54.43
2022-12-19T22:30:12.471Z,52.55
2022-12-19T22:35:17.933Z,57.40
2022-12-19T22:40:23.705Z,53.20
2022-12-19T22:45:32.551Z,55.63
2022-12-19T22:50:38.331Z,59.95
2022-12-19T22:55:44.594Z,58.47
2022-12-19T23:00:51.105Z,63.53
2022-12-19T23:11:01.813Z,60.92
2022-12-19T23:16:08.153Z,63.47
2022-12-19T23:21:21.083Z,66.90
2022-12-19T23:26:28.480Z,56.92
2022-12-19T23:31:34.624Z,67.97
2022-12-19T23:42:06.634Z,62.03
2022-12-19T23:47:12.124Z,55.22
2022-12-19T23:52:17.841Z,55.85
2022-12-19T23:57:23.422Z,57.00
